createdAt,value
2022-09-13T00:00:11.545Z,4185.7
2022-09-13T00:05:46.526Z,4183.8
2022-09-13T00:11:21.280Z,4184
2022-09-13T00:16:57.540Z,4184.1
2022-09-13T00:22:32.287Z,4185.7
2022-09-13T00:28:07.030Z,4181.3
2022-09-13T00:33:43.012Z,4183.5
2022-09-13T00:39:18.108Z,4182.6
2022-09-13T00:44:52.908Z,4183.5
2022-09-13T00:50:28.917Z,4182.1
2022-09-13T00:56:04.801Z,4180.1
2022-09-13T01:01:39.742Z,4182.5
2022-09-13T01:07:16.353Z,4181.5
2022-09-13T01:12:52.399Z,4180.8
2022-09-13T01:18:27.232Z,4180
2022-09-13T01:24:02.372Z,4181.1
2022-09-13T01:29:38.515Z,4180.6
2022-09-13T01:35:13.452Z,4179.5
2022-09-13T01:40:48.926Z,4180.6
2022-09-13T01:46:25.818Z,4180.8
2022-09-13T01:52:01.141Z,4178.1
2022-09-13T01:57:36.354Z,4177.5
2022-09-13T02:03:11.064Z,4179
2022-09-13T02:08:46.775Z,4182.8
2022-09-13T02:14:21.959Z,4178.1
2022-09-13T02:19:56.724Z,4179
2022-09-13T02:25:31.698Z,4176.9
2022-09-13T02:31:06.872Z,4177.3
2022-09-13T02:36:42.202Z,4181.6
2022-09-13T02:42:17.436Z,4180.5
2022-09-13T02:47:52.918Z,4175.1
2022-09-13T02:53:28.649Z,4178.8
2022-09-13T02:59:03.631Z,4175.3
2022-09-13T03:04:39.713Z,4176.9
2022-09-13T03:10:14.459Z,4174.4
2022-09-13T03:15:49.309Z,4175.8
2022-09-13T03:21:24.628Z,4176.6
2022-09-13T03:27:00.346Z,4175.9
2022-09-13T03:32:35.188Z,4175.9
2022-09-13T03:38:10.793Z,4175.3
2022-09-13T03:43:45.783Z,4175.8
2022-09-13T03:49:21.639Z,4173.6
2022-09-13T03:54:57.138Z,4174.3
2022-09-13T04:00:32.270Z,4172.8
2022-09-13T04:06:07.126Z,4174.8
2022-09-13T04:11:42.782Z,4174.4
2022-09-13T04:17:18.084Z,4174.1
2022-09-13T04:22:53.112Z,4172.3
2022-09-13T04:28:29.562Z,4172.3
2022-09-13T04:34:04.955Z,4172.9
2022-09-13T04:39:40.763Z,4172.1
2022-09-13T04:45:16.048Z,4172.9
2022-09-13T04:50:51.100Z,4172.1
2022-09-13T04:56:25.955Z,4169.9
2022-09-13T05:02:01.733Z,4171.4
2022-09-13T05:07:36.544Z,4173.3
2022-09-13T05:13:11.997Z,4169.7
2022-09-13T05:18:49.015Z,4170.1
2022-09-13T05:24:24.485Z,4168.1
2022-09-13T05:29:59.239Z,4171.3
2022-09-13T05:35:34.492Z,4171.4
2022-09-13T05:41:09.369Z,4171.3
2022-09-13T05:46:44.056Z,4170.6
2022-09-13T05:52:19.440Z,4170.6
2022-09-13T05:57:54.164Z,4168.4
2022-09-13T06:03:28.960Z,4167.2
2022-09-13T06:09:04.414Z,4169.1
2022-09-13T06:14:39.289Z,4170.6
2022-09-13T06:20:14.260Z,4166.7
2022-09-13T06:25:51.250Z,4168.2
2022-09-13T06:31:27.727Z,4169.4
2022-09-13T06:37:03.085Z,4168.1
2022-09-13T06:42:39.111Z,4175.6
2022-09-13T06:48:14.056Z,4176.9
2022-09-13T06:53:49.178Z,4177.8
2022-09-13T06:59:25.897Z,4177.8
2022-09-13T07:05:00.776Z,4176.3
2022-09-13T07:10:35.611Z,4178.6
2022-09-13T07:16:12.132Z,4176.4
2022-09-13T07:21:51.332Z,4181.8
2022-09-13T07:27:27.431Z,4180.3
2022-09-13T07:33:03.314Z,4182.3
2022-09-13T07:38:38.918Z,4180.6
2022-09-13T07:44:14.127Z,4181.1
2022-09-13T07:49:49.612Z,4184.3
2022-09-13T07:55:24.529Z,4184.8
2022-09-13T08:01:00.611Z,4182.5
2022-09-13T08:06:36.092Z,4182
2022-09-13T08:12:11.837Z,4186.2
2022-09-13T08:17:47.938Z,4186.7
2022-09-13T08:23:23.149Z,4180.3
2022-09-13T08:28:58.017Z,4182.1
2022-09-13T08:34:54.846Z,4182.3
2022-09-13T08:40:28.522Z,4189.7
2022-09-13T08:46:05.180Z,4191.4
2022-09-13T08:51:40.009Z,4192.2
2022-09-13T08:57:14.956Z,4197.9
2022-09-13T09:02:51.647Z,4197
2022-09-13T09:08:27.069Z,4197.4
2022-09-13T09:14:03.146Z,4197.2
2022-09-13T09:19:37.983Z,4198.1
2022-09-13T09:25:13.215Z,4198.9
2022-09-13T09:30:53.586Z,4203.4
2022-09-13T09:36:28.715Z,4197.9
2022-09-13T09:42:03.421Z,4196.7
2022-09-13T09:47:38.714Z,4201.7
2022-09-13T09:53:13.968Z,4204.6
2022-09-13T09:58:48.683Z,4207.3
2022-09-13T10:04:23.989Z,4205.6
2022-09-13T10:09:58.716Z,4205.3
2022-09-13T10:15:34.497Z,4205.1
2022-09-13T10:21:10.984Z,4207.6
2022-09-13T10:26:46.371Z,4203.1
2022-09-13T10:32:43.144Z,4202.7
2022-09-13T10:38:16.249Z,4200.7
2022-09-13T10:43:51.082Z,4202.9
2022-09-13T10:49:26.094Z,4204.4
2022-09-13T10:55:01.218Z,4204.2
2022-09-13T11:00:35.968Z,4202.7
2022-09-13T11:06:10.815Z,4206.6
2022-09-13T11:11:46.066Z,4206.6
2022-09-13T11:17:20.969Z,4210.8
2022-09-13T11:22:56.362Z,4211.3
2022-09-13T11:28:31.636Z,4215
2022-09-13T11:34:28.179Z,4218.8
2022-09-13T11:40:01.669Z,4208.8
2022-09-13T11:45:37.519Z,4213
2022-09-13T11:51:12.417Z,4213
2022-09-13T11:56:47.170Z,4212.8
2022-09-13T12:02:25.514Z,4216.8
2022-09-13T12:08:03.624Z,4210.6
2022-09-13T12:13:38.911Z,4210.4
2022-09-13T12:19:14.367Z,4214.1
2022-09-13T12:24:49.384Z,4214.5
2022-09-13T12:30:24.136Z,4214.6
2022-09-13T12:36:00.518Z,4222.8
2022-09-13T12:41:35.495Z,4225.2
2022-09-13T12:47:10.610Z,4222.7
2022-09-13T12:52:46.789Z,4225.2
2022-09-13T12:58:22.282Z,4221.5
2022-09-13T13:03:57.518Z,4218.5
2022-09-13T13:09:32.671Z,4223.2
2022-09-13T13:15:07.886Z,4219
2022-09-13T13:20:43.147Z,4219.7
2022-09-13T13:26:19.726Z,4221.8
2022-09-13T13:32:16.640Z,4222.5
2022-09-13T13:37:49.404Z,4219.8
2022-09-13T13:43:25.197Z,4225
2022-09-13T13:49:00.344Z,4223
2022-09-13T13:54:35.367Z,4218.8
2022-09-13T14:00:10.672Z,4222
2022-09-13T14:05:47.103Z,4228.4
2022-09-13T14:11:22.100Z,4219.2
2022-09-13T14:16:58.720Z,4225.4
2022-09-13T14:22:33.829Z,4217.8
2022-09-13T14:28:08.629Z,4223
2022-09-13T14:34:05.954Z,4217
2022-09-13T14:39:39.870Z,4215.8
2022-09-13T14:45:14.696Z,4211.1
2022-09-13T14:50:50.051Z,4207.4
2022-09-13T14:56:24.927Z,4211.3
2022-09-13T15:02:06.446Z,4208.3
2022-09-13T15:07:43.444Z,4212.5
2022-09-13T15:13:22.552Z,4204.6
2022-09-13T15:18:59.879Z,4209.1
2022-09-13T15:24:36.378Z,4202.1
2022-09-13T15:30:12.562Z,4203.4
2022-09-13T15:35:48.207Z,4202.6
2022-09-13T15:41:23.704Z,4208.1
2022-09-13T15:46:59.503Z,4205.1
2022-09-13T15:52:34.436Z,4208.3
2022-09-13T15:58:10.924Z,4201.4
2022-09-13T16:03:45.717Z,4204.6
2022-09-13T16:09:20.801Z,4206.9
2022-09-13T16:14:56.516Z,4209.3
2022-09-13T16:20:31.282Z,4208.9
2022-09-13T16:26:06.510Z,4208.8
2022-09-13T16:32:03.461Z,4205.9
2022-09-13T16:37:37.080Z,4205.9
2022-09-13T16:43:12.058Z,4205.6
2022-09-13T16:48:48.752Z,4208.6
2022-09-13T16:54:23.875Z,4205.1
2022-09-13T16:59:58.926Z,4204.3
2022-09-13T17:05:34.597Z,4203.6
2022-09-13T17:11:09.613Z,4209.4
2022-09-13T17:16:45.355Z,4211
2022-09-13T17:22:21.967Z,4206.4
2022-09-13T17:27:57.148Z,4206.6
2022-09-13T17:33:32.056Z,4202.4
2022-09-13T17:39:07.327Z,4203.7
2022-09-13T17:44:42.007Z,4201.7
2022-09-13T17:50:18.069Z,4203.2
2022-09-13T17:55:53.579Z,4202.2
2022-09-13T18:01:30.014Z,4201.6
2022-09-13T18:07:05.154Z,4201.9
2022-09-13T18:12:41.513Z,4202.2
2022-09-13T18:18:19.169Z,4202.6
2022-09-13T18:23:54.477Z,4202.4
2022-09-13T18:29:31.505Z,4200.2
2022-09-13T18:35:09.142Z,4202.4
2022-09-13T18:40:46.716Z,4198.9
2022-09-13T18:46:26.013Z,4200.6
2022-09-13T18:52:01.162Z,4198.7
2022-09-13T18:57:36.315Z,4200.2
2022-09-13T19:03:15.858Z,4200.1
2022-09-13T19:08:52.203Z,4200.9
2022-09-13T19:14:27.117Z,4199.7
2022-09-13T19:20:02.485Z,4199.2
2022-09-13T19:25:37.234Z,4198.7
2022-09-13T19:31:13.102Z,4200.6
2022-09-13T19:36:48.417Z,4198.4
2022-09-13T19:42:23.470Z,4194.9
2022-09-13T19:48:40.763Z,4198.9
2022-09-13T19:54:16.418Z,4198.1
2022-09-13T19:59:51.591Z,4195.4
2022-09-13T20:05:29.441Z,4196.2
2022-09-13T20:11:05.326Z,4198.1
2022-09-13T20:16:40.392Z,4196.5
2022-09-13T20:22:15.272Z,4193.9
2022-09-13T20:27:51.004Z,4196.2
2022-09-13T20:33:26.855Z,4195.4
2022-09-13T20:39:04.739Z,4194.7
2022-09-13T20:44:40.348Z,4194.7
2022-09-13T20:50:15.046Z,4195.2
2022-09-13T20:55:49.755Z,4194
2022-09-13T21:01:26.520Z,4196
2022-09-13T21:07:01.901Z,4194.9
2022-09-13T21:12:36.712Z,4196.5
2022-09-13T21:18:12.173Z,4195.9
2022-09-13T21:23:49.814Z,4193.7
2022-09-13T21:29:25.651Z,4192.4
2022-09-13T21:35:00.945Z,4191.9
2022-09-13T21:40:35.847Z,4193.2
2022-09-13T21:46:12.919Z,4192.2
2022-09-13T21:51:48.354Z,4191.2
2022-09-13T21:57:23.055Z,4190.7
2022-09-13T22:02:57.962Z,4190.3
2022-09-13T22:08:33.181Z,4187.7
2022-09-13T22:14:08.089Z,4189.3
2022-09-13T22:19:43.068Z,4190.2
2022-09-13T22:25:18.843Z,4189
2022-09-13T22:30:54.801Z,4189.3
2022-09-13T22:36:29.941Z,4188.7
2022-09-13T22:42:05.480Z,4188.5
2022-09-13T22:47:40.209Z,4186.7
2022-09-13T22:53:15.178Z,4191
2022-09-13T22:58:50.599Z,4187.5
2022-09-13T23:04:25.413Z,4188
2022-09-13T23:10:00.477Z,4185.2
2022-09-13T23:15:35.450Z,4186.7
2022-09-13T23:21:10.209Z,4188
2022-09-13T23:26:45.145Z,4185.2
2022-09-13T23:32:20.853Z,4187.8
2022-09-13T23:37:55.923Z,4185.7
2022-09-13T23:43:30.759Z,4186.2
2022-09-13T23:49:05.642Z,4185.7
2022-09-13T23:54:40.542Z,4185.7
